createdAt,value
2023-01-10T00:02:45.715Z,3.67
2023-01-10T00:07:47.441Z,5.25
2023-01-10T00:13:07.590Z,4.13
2023-01-10T00:18:09.633Z,5.82
2023-01-10T00:23:11.783Z,6.15
2023-01-10T00:28:19.457Z,7.25
2023-01-10T00:33:21.646Z,10.18
2023-01-10T00:38:23.694Z,8.95
2023-01-10T00:43:43.998Z,9.57
2023-01-10T00:48:45.652Z,11.13
2023-01-10T00:53:47.291Z,13.05
2023-01-10T00:58:48.903Z,10.48
2023-01-10T01:03:50.566Z,12.20
2023-01-10T01:08:52.280Z,9.07
2023-01-10T01:13:53.900Z,9.90
2023-01-10T01:18:55.606Z,11.25
2023-01-10T01:23:57.712Z,10.38
2023-01-10T01:28:59.369Z,11.57
2023-01-10T01:34:01.046Z,12.82
2023-01-10T01:39:03.787Z,15.40
2023-01-10T01:44:10.542Z,12.45
2023-01-10T01:49:21.024Z,14.05
2023-01-10T01:54:22.823Z,13.43
2023-01-10T01:59:35.394Z,11.23
2023-01-10T02:04:52.333Z,7.85
2023-01-10T02:10:06.125Z,13.85
2023-01-10T02:15:09.668Z,10.65
2023-01-10T02:20:12.886Z,9.63
2023-01-10T02:25:40.713Z,16.92
2023-01-10T02:31:09.817Z,16.65
2023-01-10T02:36:28.277Z,14.25
2023-01-10T02:41:49.392Z,13.68
2023-01-10T02:46:51.589Z,12.05
2023-01-10T02:51:53.334Z,12.43
2023-01-10T02:57:16.634Z,12.13
2023-01-10T03:02:52.227Z,13.75
2023-01-10T03:08:02.978Z,8.57
2023-01-10T03:13:14.565Z,13.05
2023-01-10T03:18:25.254Z,12.15
2023-01-10T03:23:27.770Z,15.27
2023-01-10T03:28:43.926Z,11.73
2023-01-10T03:33:46.814Z,13.75
2023-01-10T03:38:57.069Z,10.00
2023-01-10T03:44:37.966Z,13.90
2023-01-10T03:49:42.229Z,13.13
2023-01-10T03:54:45.695Z,13.90
2023-01-10T03:59:50.465Z,13.67
2023-01-10T04:04:52.049Z,14.68
2023-01-10T04:09:53.910Z,15.43
2023-01-10T04:14:55.634Z,13.40
2023-01-10T04:19:57.403Z,14.45
2023-01-10T04:24:59.152Z,14.48
2023-01-10T04:30:00.778Z,10.65
2023-01-10T04:35:02.519Z,18.15
2023-01-10T04:40:04.675Z,15.60
2023-01-10T04:45:07.058Z,13.30
2023-01-10T04:50:09.457Z,13.52
2023-01-10T04:55:11.238Z,10.05
2023-01-10T05:00:13.631Z,10.10
2023-01-10T05:05:15.442Z,13.93
2023-01-10T05:10:17.584Z,14.93
2023-01-10T05:15:21.106Z,13.00
2023-01-10T05:20:22.746Z,9.00
2023-01-10T05:25:24.409Z,11.93
2023-01-10T05:30:26.036Z,11.77
2023-01-10T05:35:28.673Z,9.88
2023-01-10T05:40:30.402Z,14.15
2023-01-10T05:45:32.168Z,11.80
2023-01-10T05:50:33.895Z,16.02
2023-01-10T05:55:35.601Z,11.38
2023-01-10T06:00:39.817Z,19.00
2023-01-10T06:05:41.659Z,10.00
2023-01-10T06:10:43.826Z,12.05
2023-01-10T06:15:45.666Z,14.90
2023-01-10T06:20:47.381Z,15.85
2023-01-10T06:25:49.062Z,14.15
2023-01-10T06:30:50.710Z,13.02
2023-01-10T06:35:52.425Z,15.00
2023-01-10T06:40:54.094Z,13.82
2023-01-10T06:45:56.805Z,22.23
2023-01-10T06:50:59.552Z,20.27
2023-01-10T06:56:01.391Z,9.95
2023-01-10T07:01:03.133Z,22.63
2023-01-10T07:06:09.799Z,17.73
2023-01-10T07:11:14.551Z,11.50
2023-01-10T07:16:16.686Z,19.85
2023-01-10T07:21:19.807Z,14.73
2023-01-10T07:26:21.591Z,11.77
2023-01-10T07:31:24.437Z,13.93
2023-01-10T07:36:27.466Z,13.10
2023-01-10T07:41:29.139Z,12.05
2023-01-10T07:46:31.006Z,13.77
2023-01-10T07:51:32.877Z,18.30
2023-01-10T07:56:34.558Z,20.63
2023-01-10T08:01:36.211Z,21.50
2023-01-10T08:06:37.934Z,20.58
2023-01-10T08:11:41.539Z,18.65
2023-01-10T08:16:43.421Z,21.98
2023-01-10T08:21:45.073Z,19.48
2023-01-10T08:26:46.829Z,15.93
2023-01-10T08:31:50.200Z,14.98
2023-01-10T08:36:53.261Z,13.35
2023-01-10T08:41:54.889Z,18.02
2023-01-10T08:46:56.880Z,16.52
2023-01-10T08:51:58.989Z,14.65
2023-01-10T08:57:01.600Z,17.20
2023-01-10T09:02:04.969Z,15.93
2023-01-10T09:07:06.783Z,15.93
2023-01-10T09:12:28.473Z,16.58
2023-01-10T09:17:30.158Z,13.90
2023-01-10T09:22:33.121Z,17.50
2023-01-10T09:27:35.035Z,17.30
2023-01-10T09:32:37.746Z,17.20
2023-01-10T09:37:49.876Z,19.02
2023-01-10T09:43:16.853Z,18.63
2023-01-10T09:48:26.877Z,15.25
2023-01-10T09:53:32.038Z,15.70
2023-01-10T09:58:35.466Z,18.90
2023-01-10T10:03:53.047Z,19.30
2023-01-10T10:08:56.535Z,23.48
2023-01-10T10:14:13.230Z,17.33
2023-01-10T10:19:23.540Z,23.13
2023-01-10T10:24:48.156Z,19.88
2023-01-10T10:30:16.902Z,20.38
2023-01-10T10:35:34.546Z,15.20
2023-01-10T10:40:40.239Z,19.55
2023-01-10T10:45:46.936Z,12.98
2023-01-10T10:51:10.335Z,17.73
2023-01-10T10:56:15.949Z,16.17
2023-01-10T11:01:19.797Z,18.50
2023-01-10T11:06:23.745Z,14.02
2023-01-10T11:11:31.913Z,19.50
2023-01-10T11:16:40.419Z,13.55
2023-01-10T11:21:56.173Z,16.00
2023-01-10T11:27:01.151Z,14.70
2023-01-10T11:32:15.232Z,14.27
2023-01-10T11:37:16.950Z,20.17
2023-01-10T11:42:29.850Z,18.95
2023-01-10T11:47:38.116Z,16.58
2023-01-10T11:52:45.863Z,16.85
2023-01-10T12:02:57.563Z,12.35
2023-01-10T12:08:07.876Z,16.38
2023-01-10T12:13:16.990Z,14.20
2023-01-10T12:18:19.650Z,14.65
2023-01-10T12:23:24.666Z,16.33
2023-01-10T12:28:30.057Z,12.30
2023-01-10T12:33:46.833Z,10.05
2023-01-10T12:39:03.718Z,12.98
2023-01-10T12:44:19.000Z,14.85
2023-01-10T12:49:26.427Z,12.57
2023-01-10T12:54:30.319Z,12.60
2023-01-10T12:59:38.320Z,14.68
2023-01-10T13:04:41.494Z,16.25
2023-01-10T13:09:44.281Z,13.48
2023-01-10T13:15:28.655Z,15.10
2023-01-10T13:20:38.189Z,11.48
2023-01-10T13:25:40.107Z,8.52
2023-01-10T13:30:42.158Z,12.35
2023-01-10T13:35:44.775Z,14.50
2023-01-10T13:41:04.470Z,11.68
2023-01-10T13:46:18.187Z,16.45
2023-01-10T13:51:23.398Z,12.03
2023-01-10T13:56:39.469Z,12.98
2023-01-10T14:02:00.227Z,17.67
2023-01-10T14:07:06.918Z,13.55
2023-01-10T14:12:35.381Z,13.65
2023-01-10T14:17:38.787Z,18.52
2023-01-10T14:22:45.006Z,8.63
2023-01-10T14:27:50.602Z,13.13
2023-01-10T14:32:57.681Z,14.07
2023-01-10T14:38:02.983Z,14.40
2023-01-10T14:43:09.459Z,19.45
2023-01-10T14:48:41.309Z,12.50
2023-01-10T14:53:43.074Z,17.10
2023-01-10T14:58:44.672Z,18.08
2023-01-10T15:03:47.177Z,14.40
2023-01-10T15:09:03.736Z,15.95
2023-01-10T15:14:08.255Z,15.23
2023-01-10T15:19:17.108Z,12.05
2023-01-10T15:24:36.704Z,11.13
2023-01-10T15:29:44.816Z,15.80
2023-01-10T15:34:49.766Z,17.83
2023-01-10T15:39:52.867Z,18.00
2023-01-10T15:44:55.736Z,18.00
2023-01-10T15:49:58.226Z,19.50
2023-01-10T15:55:00.040Z,24.08
2023-01-10T16:00:02.823Z,20.17
2023-01-10T16:05:11.683Z,17.27
2023-01-10T16:10:26.578Z,21.38
2023-01-10T16:15:35.565Z,17.25
2023-01-10T16:20:40.791Z,17.27
2023-01-10T16:25:47.013Z,19.13
2023-01-10T16:30:49.302Z,16.60
2023-01-10T16:35:53.962Z,18.85
2023-01-10T16:41:23.396Z,24.05
2023-01-10T16:46:25.089Z,15.00
2023-01-10T16:51:30.224Z,15.98
2023-01-10T16:56:31.984Z,19.50
2023-01-10T17:01:55.211Z,14.65
2023-01-10T17:06:57.202Z,18.08
2023-01-10T17:12:03.939Z,11.57
2023-01-10T17:17:05.823Z,17.85
2023-01-10T17:22:07.513Z,12.70
2023-01-10T17:27:09.177Z,11.05
2023-01-10T17:32:11.465Z,10.23
2023-01-10T17:37:13.119Z,13.93
2023-01-10T17:42:14.769Z,14.63
2023-01-10T17:47:16.576Z,17.15
2023-01-10T17:52:18.542Z,9.43
2023-01-10T17:57:20.206Z,14.32
2023-01-10T18:02:22.973Z,11.50
2023-01-10T18:07:24.856Z,13.98
2023-01-10T18:12:26.566Z,19.17
2023-01-10T18:17:28.489Z,18.23
2023-01-10T18:22:48.857Z,14.85
2023-01-10T18:27:52.369Z,17.77
2023-01-10T18:32:54.587Z,15.60
2023-01-10T18:37:57.375Z,13.07
2023-01-10T18:42:59.065Z,16.85
2023-01-10T18:48:02.094Z,17.92
2023-01-10T18:53:04.507Z,14.10
2023-01-10T18:58:06.321Z,9.98
2023-01-10T19:03:07.993Z,13.38
2023-01-10T19:08:09.680Z,8.48
2023-01-10T19:13:11.615Z,13.88
2023-01-10T19:18:13.732Z,7.90
2023-01-10T19:23:15.553Z,8.98
2023-01-10T19:28:17.260Z,3.75
2023-01-10T19:33:19.464Z,7.57
2023-01-10T19:38:21.498Z,5.07
2023-01-10T19:43:24.920Z,8.02
2023-01-10T19:48:26.624Z,7.10
2023-01-10T19:53:28.294Z,4.57
2023-01-10T19:58:30.496Z,5.18
2023-01-10T20:03:33.323Z,6.13
2023-01-10T20:08:35.001Z,3.65
2023-01-10T20:13:38.903Z,6.68
2023-01-10T20:18:41.519Z,4.80
2023-01-10T20:23:44.179Z,3.28
2023-01-10T20:28:47.969Z,6.10
2023-01-10T20:33:50.219Z,4.65
2023-01-10T20:38:52.411Z,3.38
2023-01-10T20:43:55.411Z,5.65
2023-01-10T20:48:58.282Z,4.28
2023-01-10T20:54:01.712Z,4.53
2023-01-10T20:59:04.001Z,2.80
2023-01-10T21:04:07.052Z,3.55
2023-01-10T21:09:11.559Z,3.35
2023-01-10T21:14:13.300Z,3.45
2023-01-10T21:19:15.763Z,4.47
2023-01-10T21:24:18.915Z,3.53
2023-01-10T21:29:20.597Z,2.85
2023-01-10T21:34:22.227Z,3.58
2023-01-10T21:39:23.950Z,5.68
2023-01-10T21:44:25.910Z,1.95
2023-01-10T21:49:27.769Z,2.72
2023-01-10T21:54:29.539Z,2.95
2023-01-10T21:59:33.907Z,2.25
2023-01-10T22:04:35.565Z,2.58
2023-01-10T22:09:37.277Z,2.03
2023-01-10T22:14:38.939Z,2.65
2023-01-10T22:19:41.247Z,2.45
2023-01-10T22:24:46.576Z,3.03
2023-01-10T22:29:48.280Z,2.20
2023-01-10T22:34:49.936Z,3.38
2023-01-10T22:39:51.571Z,4.88
2023-01-10T22:44:53.216Z,1.67
2023-01-10T22:49:54.948Z,1.65
2023-01-10T22:54:56.587Z,1.88
2023-01-10T22:59:58.321Z,3.25
2023-01-10T23:04:59.967Z,1.63
2023-01-10T23:10:01.733Z,2.63
2023-01-10T23:15:03.629Z,2.45
2023-01-10T23:20:05.957Z,1.50
2023-01-10T23:25:07.893Z,4.30
2023-01-10T23:30:10.396Z,3.50
2023-01-10T23:35:12.091Z,2.42
2023-01-10T23:40:13.794Z,3.67
2023-01-10T23:45:16.484Z,1.38
2023-01-10T23:50:20.068Z,2.58
2023-01-10T23:55:21.776Z,2.00
